createdAt,value
2023-05-05T00:00:07.955Z,0.00
2023-05-05T00:01:07.814Z,0.00
2023-05-05T00:02:07.890Z,0.00
2023-05-05T00:03:07.899Z,0.00
2023-05-05T00:04:07.899Z,0.00
2023-05-05T00:05:07.883Z,0.00
2023-05-05T00:06:07.890Z,0.00
2023-05-05T00:07:07.907Z,0.00
2023-05-05T00:08:07.925Z,0.00
2023-05-05T00:09:07.941Z,0.00
2023-05-05T00:10:08.241Z,0.00
2023-05-05T00:11:07.973Z,0.00
2023-05-05T00:12:07.998Z,0.00
2023-05-05T00:13:08.125Z,0.00
2023-05-05T00:14:08.014Z,0.00
2023-05-05T00:15:08.028Z,0.00
2023-05-05T00:16:08.049Z,0.00
2023-05-05T00:17:08.102Z,0.00
2023-05-05T00:18:08.089Z,0.00
2023-05-05T00:19:08.094Z,0.00
2023-05-05T00:20:08.289Z,0.00
2023-05-05T00:21:08.128Z,0.00
2023-05-05T00:22:08.136Z,0.00
2023-05-05T00:23:08.154Z,0.00
2023-05-05T00:24:08.168Z,0.00
2023-05-05T00:25:08.186Z,0.00
2023-05-05T00:26:08.202Z,0.00
2023-05-05T00:27:08.228Z,0.00
2023-05-05T00:28:08.229Z,0.00
2023-05-05T00:29:08.248Z,0.00
2023-05-05T00:30:08.523Z,0.00
2023-05-05T00:31:08.314Z,0.00
2023-05-05T00:32:08.295Z,0.00
2023-05-05T00:33:08.366Z,0.00
2023-05-05T00:34:08.327Z,0.00
2023-05-05T00:35:08.341Z,0.00
2023-05-05T00:36:08.360Z,0.00
2023-05-05T00:37:08.374Z,0.00
2023-05-05T00:38:08.400Z,0.00
2023-05-05T00:39:08.405Z,0.00
2023-05-05T00:40:08.637Z,0.00
2023-05-05T00:41:08.433Z,0.00
2023-05-05T00:42:08.458Z,0.00
2023-05-05T00:43:08.482Z,0.00
2023-05-05T00:44:08.488Z,0.00
2023-05-05T00:45:08.497Z,0.00
2023-05-05T00:46:08.542Z,0.00
2023-05-05T00:47:08.534Z,0.00
2023-05-05T00:48:08.666Z,0.00
2023-05-05T00:49:08.576Z,0.00
2023-05-05T00:50:08.767Z,0.00
2023-05-05T00:51:08.593Z,0.00
2023-05-05T00:52:08.624Z,0.00
2023-05-05T00:53:08.633Z,0.00
2023-05-05T00:54:08.636Z,0.00
2023-05-05T00:55:08.654Z,0.00
2023-05-05T00:56:08.672Z,0.00
2023-05-05T00:57:08.685Z,0.00
2023-05-05T00:58:08.715Z,0.00
2023-05-05T00:59:08.718Z,0.00
2023-05-05T01:00:08.961Z,0.00
2023-05-05T01:01:08.755Z,0.00
2023-05-05T01:02:08.759Z,0.00
2023-05-05T01:03:08.860Z,0.00
2023-05-05T01:04:08.789Z,0.00
2023-05-05T01:05:08.818Z,0.00
2023-05-05T01:06:08.819Z,0.00
2023-05-05T01:07:08.838Z,0.00
2023-05-05T01:08:08.851Z,0.00
2023-05-05T01:09:08.867Z,0.00
2023-05-05T01:10:19.715Z,0.00
2023-05-05T01:11:08.901Z,0.00
2023-05-05T01:12:08.908Z,0.00
2023-05-05T01:13:08.979Z,0.00
2023-05-05T01:14:08.950Z,0.00
2023-05-05T01:15:08.954Z,0.00
2023-05-05T01:16:09.007Z,0.00
2023-05-05T01:17:08.988Z,0.00
2023-05-05T01:18:08.999Z,0.00
2023-05-05T01:19:09.026Z,0.00
2023-05-05T01:20:09.213Z,0.00
2023-05-05T01:21:09.057Z,0.00
2023-05-05T01:22:09.066Z,0.00
2023-05-05T01:23:09.076Z,0.00
2023-05-05T01:24:09.094Z,0.00
2023-05-05T01:25:09.115Z,0.00
2023-05-05T01:26:09.118Z,0.00
2023-05-05T01:27:09.152Z,0.00
2023-05-05T01:28:09.151Z,0.00
2023-05-05T01:29:09.160Z,0.00
2023-05-05T01:30:09.323Z,0.00
2023-05-05T01:31:09.256Z,0.00
2023-05-05T01:32:09.223Z,0.00
2023-05-05T01:33:09.227Z,0.00
2023-05-05T01:34:09.241Z,0.00
2023-05-05T01:35:09.256Z,0.00
2023-05-05T01:36:09.269Z,0.00
2023-05-05T01:37:09.284Z,0.00
2023-05-05T01:38:09.298Z,0.00
2023-05-05T01:39:09.312Z,0.00
2023-05-05T01:40:09.596Z,0.00
2023-05-05T01:41:09.341Z,0.00
2023-05-05T01:42:09.355Z,0.00
2023-05-05T01:43:09.372Z,0.00
2023-05-05T01:44:09.389Z,0.00
2023-05-05T01:45:09.409Z,0.00
2023-05-05T01:46:09.469Z,0.00
2023-05-05T01:47:09.435Z,0.00
2023-05-05T01:48:09.452Z,0.00
2023-05-05T01:49:09.460Z,0.00
2023-05-05T01:50:09.651Z,0.00
2023-05-05T01:51:09.498Z,0.00
2023-05-05T01:52:09.512Z,0.00
2023-05-05T01:53:09.533Z,0.00
2023-05-05T01:54:09.531Z,0.00
2023-05-05T01:55:09.548Z,0.00
2023-05-05T01:56:09.565Z,0.00
2023-05-05T01:57:09.577Z,0.00
2023-05-05T01:58:09.608Z,0.00
2023-05-05T01:59:09.604Z,0.00
2023-05-05T02:00:09.822Z,0.00
2023-05-05T02:01:09.664Z,0.00
2023-05-05T02:02:09.649Z,0.00
2023-05-05T02:03:09.815Z,0.00
2023-05-05T02:04:09.703Z,0.00
2023-05-05T02:05:09.699Z,0.00
2023-05-05T02:06:09.706Z,0.00
2023-05-05T02:07:09.725Z,0.00
2023-05-05T02:08:09.737Z,0.00
2023-05-05T02:09:09.787Z,0.00
2023-05-05T02:10:09.970Z,0.00
2023-05-05T02:11:09.783Z,0.00
2023-05-05T02:12:09.798Z,0.00
2023-05-05T02:13:09.863Z,0.00
2023-05-05T02:14:09.825Z,0.00
2023-05-05T02:15:09.844Z,0.00
2023-05-05T02:16:09.902Z,0.00
2023-05-05T02:17:09.872Z,0.00
2023-05-05T02:18:09.892Z,0.00
2023-05-05T02:19:09.897Z,0.00
2023-05-05T02:20:10.093Z,0.00
2023-05-05T02:21:09.927Z,0.00
2023-05-05T02:22:09.943Z,0.00
2023-05-05T02:23:09.962Z,0.00
2023-05-05T02:24:09.973Z,0.00
2023-05-05T02:25:09.984Z,0.00
2023-05-05T02:26:10.015Z,0.00
2023-05-05T02:27:10.017Z,0.00
2023-05-05T02:28:10.032Z,0.00
2023-05-05T02:29:10.041Z,0.00
2023-05-05T02:30:10.216Z,0.00
2023-05-05T02:31:10.194Z,0.00
2023-05-05T02:32:10.088Z,0.00
2023-05-05T02:33:10.110Z,0.00
2023-05-05T02:34:10.116Z,0.00
2023-05-05T02:35:10.131Z,0.00
2023-05-05T02:36:10.142Z,0.00
2023-05-05T02:37:10.169Z,0.00
2023-05-05T02:38:10.177Z,0.00
2023-05-05T02:39:10.195Z,0.00
2023-05-05T02:40:10.374Z,0.00
2023-05-05T02:41:10.220Z,0.00
2023-05-05T02:42:10.238Z,0.00
2023-05-05T02:43:10.291Z,0.00
2023-05-05T02:44:10.260Z,0.00
2023-05-05T02:45:10.274Z,0.00
2023-05-05T02:46:10.324Z,0.00
2023-05-05T02:47:10.308Z,0.00
2023-05-05T02:48:10.313Z,0.00
2023-05-05T02:49:10.329Z,0.00
2023-05-05T02:50:10.585Z,0.00
2023-05-05T02:51:10.360Z,4.00
2023-05-05T02:52:10.373Z,4.00
2023-05-05T02:53:10.385Z,0.00
2023-05-05T02:54:10.411Z,0.00
2023-05-05T02:55:10.417Z,4.00
2023-05-05T02:56:10.431Z,4.00
2023-05-05T02:57:10.443Z,4.00
2023-05-05T02:58:10.457Z,4.00
2023-05-05T02:59:10.469Z,4.00
2023-05-05T03:00:10.485Z,8.00
2023-05-05T03:01:10.517Z,8.00
2023-05-05T03:02:10.516Z,12.00
2023-05-05T03:03:10.564Z,12.00
2023-05-05T03:04:10.546Z,12.00
2023-05-05T03:05:10.552Z,12.00
2023-05-05T03:06:10.567Z,16.00
2023-05-05T03:07:10.581Z,16.00
2023-05-05T03:08:10.607Z,20.00
2023-05-05T03:09:10.616Z,24.00
2023-05-05T03:10:10.763Z,24.00
2023-05-05T03:11:10.638Z,28.00
2023-05-05T03:12:10.658Z,32.00
2023-05-05T03:13:10.771Z,36.00
2023-05-05T03:14:10.683Z,40.00
2023-05-05T03:15:10.695Z,44.00
2023-05-05T03:16:10.790Z,52.00
2023-05-05T03:17:10.721Z,60.00
2023-05-05T03:18:10.745Z,64.00
2023-05-05T03:19:10.749Z,72.00
2023-05-05T03:20:10.766Z,80.00
2023-05-05T03:21:10.780Z,88.00
2023-05-05T03:22:10.811Z,100.00
2023-05-05T03:23:10.806Z,108.00
2023-05-05T03:24:10.821Z,116.00
2023-05-05T03:25:10.831Z,128.00
2023-05-05T03:26:10.854Z,140.00
2023-05-05T03:27:10.860Z,152.00
2023-05-05T03:28:10.875Z,164.00
2023-05-05T03:29:10.887Z,176.00
2023-05-05T03:30:10.990Z,192.00
2023-05-05T03:31:10.919Z,204.00
2023-05-05T03:32:10.982Z,220.00
2023-05-05T03:33:10.942Z,236.00
2023-05-05T03:34:11.002Z,256.00
2023-05-05T03:35:10.968Z,272.00
2023-05-05T03:36:10.986Z,288.00
2023-05-05T03:37:11.007Z,308.00
2023-05-05T03:38:11.014Z,328.00
2023-05-05T03:39:11.032Z,348.00
2023-05-05T03:40:11.060Z,368.00
2023-05-05T03:41:11.078Z,388.00
2023-05-05T03:42:11.079Z,408.00
2023-05-05T03:43:11.098Z,428.00
2023-05-05T03:44:11.109Z,452.00
2023-05-05T03:45:11.136Z,472.00
2023-05-05T03:46:11.167Z,492.00
2023-05-05T03:47:11.141Z,512.00
2023-05-05T03:48:11.183Z,532.00
2023-05-05T03:49:11.197Z,560.00
2023-05-05T03:50:11.175Z,580.00
2023-05-05T03:51:11.191Z,608.00
2023-05-05T03:52:12.174Z,636.00
2023-05-05T03:53:11.219Z,664.00
2023-05-05T03:54:11.232Z,696.00
2023-05-05T03:55:11.256Z,728.00
2023-05-05T03:56:11.277Z,760.00
2023-05-05T03:57:11.278Z,796.00
2023-05-05T03:58:11.290Z,828.00
2023-05-05T03:59:11.304Z,864.00
2023-05-05T04:00:11.329Z,896.00
2023-05-05T04:01:11.331Z,932.00
2023-05-05T04:02:11.350Z,972.00
2023-05-05T04:03:11.458Z,1016.00
2023-05-05T04:04:11.398Z,1068.00
2023-05-05T04:05:11.388Z,1124.00
2023-05-05T04:06:11.405Z,1184.00
2023-05-05T04:07:11.416Z,1248.00
2023-05-05T04:08:11.431Z,1308.00
2023-05-05T04:09:11.453Z,1356.00
2023-05-05T04:10:11.459Z,1392.00
2023-05-05T04:11:11.479Z,1420.00
2023-05-05T04:12:11.487Z,1456.00
2023-05-05T04:13:11.535Z,1512.00
2023-05-05T04:14:11.517Z,1576.00
2023-05-05T04:15:11.558Z,1624.00
2023-05-05T04:16:11.587Z,1668.00
2023-05-05T04:17:11.557Z,1712.00
2023-05-05T04:18:11.577Z,1776.00
2023-05-05T04:19:11.585Z,1860.00
2023-05-05T04:20:11.627Z,1932.00
2023-05-05T04:21:11.613Z,2000.00
2023-05-05T04:22:11.623Z,2068.00
2023-05-05T04:23:11.643Z,2120.00
2023-05-05T04:24:11.659Z,2156.00
2023-05-05T04:25:11.668Z,2188.00
2023-05-05T04:26:11.691Z,2232.00
2023-05-05T04:27:11.696Z,2264.00
2023-05-05T04:28:11.710Z,2292.00
2023-05-05T04:29:11.722Z,2312.00
2023-05-05T04:30:11.742Z,2332.00
2023-05-05T04:31:11.777Z,2364.00
2023-05-05T04:32:11.765Z,2400.00
2023-05-05T04:33:11.777Z,2424.00
2023-05-05T04:34:11.794Z,2448.00
2023-05-05T04:35:11.821Z,2480.00
2023-05-05T04:36:11.818Z,2512.00
2023-05-05T04:37:11.831Z,2552.00
2023-05-05T04:38:11.856Z,2632.00
2023-05-05T04:39:11.863Z,2688.00
2023-05-05T04:40:11.888Z,2732.00
2023-05-05T04:41:11.891Z,2756.00
2023-05-05T04:42:11.901Z,2792.00
2023-05-05T04:43:11.917Z,2840.00
2023-05-05T04:44:11.944Z,2920.00
2023-05-05T04:45:11.942Z,3024.00
2023-05-05T04:46:11.992Z,3104.00
2023-05-05T04:47:14.416Z,3140.00
2023-05-05T04:48:11.986Z,3152.00
2023-05-05T04:49:11.999Z,3168.00
2023-05-05T04:50:12.019Z,3156.00
2023-05-05T04:51:12.030Z,3136.00
2023-05-05T04:52:12.040Z,3108.00
2023-05-05T04:53:12.056Z,3180.00
2023-05-05T04:54:12.073Z,3296.00
2023-05-05T04:55:12.082Z,3332.00
2023-05-05T04:56:12.096Z,3392.00
2023-05-05T04:57:12.116Z,3464.00
2023-05-05T04:58:12.124Z,3544.00
2023-05-05T04:59:12.148Z,3864.00
2023-05-05T05:00:12.159Z,4300.00
2023-05-05T05:01:12.171Z,4180.00
2023-05-05T05:02:12.268Z,3808.00
2023-05-05T05:03:12.329Z,3700.00
2023-05-05T05:04:12.210Z,3700.00
2023-05-05T05:05:12.235Z,3812.00
2023-05-05T05:06:12.249Z,3864.00
2023-05-05T05:07:12.252Z,3832.00
2023-05-05T05:08:12.265Z,3876.00
2023-05-05T05:09:12.281Z,3976.00
2023-05-05T05:10:12.300Z,4040.00
2023-05-05T05:11:12.311Z,4112.00
2023-05-05T05:12:12.325Z,4168.00
2023-05-05T05:13:12.860Z,4256.00
2023-05-05T05:14:12.352Z,4360.00
2023-05-05T05:15:12.365Z,4472.00
2023-05-05T05:16:12.425Z,4568.00
2023-05-05T05:17:12.396Z,4784.00
2023-05-05T05:18:12.409Z,4712.00
2023-05-05T05:19:12.434Z,4772.00
2023-05-05T05:20:12.468Z,4756.00
2023-05-05T05:21:12.454Z,4748.00
2023-05-05T05:22:12.474Z,4760.00
2023-05-05T05:23:12.484Z,4776.00
2023-05-05T05:24:12.515Z,4836.00
2023-05-05T05:25:12.511Z,4912.00
2023-05-05T05:26:12.525Z,5020.00
2023-05-05T05:27:12.544Z,5080.00
2023-05-05T05:28:12.559Z,5012.00
2023-05-05T05:29:12.572Z,5080.00
2023-05-05T05:30:12.588Z,5188.00
2023-05-05T05:31:12.604Z,5484.00
2023-05-05T05:32:12.728Z,7464.00
2023-05-05T05:33:12.655Z,11464.00
2023-05-05T05:34:12.953Z,10932.00
2023-05-05T05:35:12.664Z,6908.00
2023-05-05T05:36:12.685Z,5976.00
2023-05-05T05:37:12.690Z,5788.00
2023-05-05T05:38:12.707Z,7500.00
2023-05-05T05:39:12.717Z,6560.00
2023-05-05T05:40:12.734Z,6512.00
2023-05-05T05:41:12.749Z,6616.00
2023-05-05T05:42:12.762Z,6080.00
2023-05-05T05:43:12.776Z,5744.00
2023-05-05T05:44:12.796Z,7104.00
2023-05-05T05:45:12.809Z,11024.00
2023-05-05T05:46:12.856Z,11140.00
2023-05-05T05:47:12.839Z,12012.00
2023-05-05T05:48:12.852Z,10500.00
2023-05-05T05:49:12.875Z,7524.00
2023-05-05T05:50:12.891Z,6660.00
2023-05-05T05:51:12.899Z,6656.00
2023-05-05T05:52:12.916Z,7252.00
2023-05-05T05:53:12.934Z,7316.00
2023-05-05T05:54:12.945Z,7420.00
2023-05-05T05:55:12.989Z,7308.00
2023-05-05T05:56:12.979Z,7756.00
2023-05-05T05:57:12.989Z,8132.00
2023-05-05T05:58:13.006Z,8888.00
2023-05-05T05:59:13.040Z,12016.00
2023-05-05T06:00:13.041Z,9940.00
2023-05-05T06:01:13.050Z,9504.00
2023-05-05T06:02:13.222Z,9508.00
2023-05-05T06:03:13.186Z,10140.00
2023-05-05T06:04:13.119Z,10460.00
2023-05-05T06:05:13.147Z,9936.00
2023-05-05T06:06:13.130Z,9248.00
2023-05-05T06:07:13.153Z,9644.00
2023-05-05T06:08:13.173Z,9648.00
2023-05-05T06:09:13.173Z,8892.00
2023-05-05T06:10:26.646Z,8652.00
2023-05-05T06:11:13.209Z,9052.00
2023-05-05T06:12:13.228Z,9764.00
2023-05-05T06:13:13.283Z,9932.00
2023-05-05T06:14:13.269Z,10132.00
2023-05-05T06:15:13.275Z,12112.00
2023-05-05T06:16:13.332Z,13908.00
2023-05-05T06:17:13.308Z,14628.00
2023-05-05T06:18:13.377Z,16608.00
2023-05-05T06:19:13.353Z,23552.00
2023-05-05T06:20:13.363Z,25568.00
2023-05-05T06:21:13.387Z,22528.00
2023-05-05T06:22:13.386Z,28096.00
2023-05-05T06:23:13.408Z,27872.00
2023-05-05T06:24:13.422Z,41760.00
2023-05-05T06:25:13.462Z,36864.00
2023-05-05T06:26:13.458Z,37856.00
2023-05-05T06:27:13.475Z,35136.00
2023-05-05T06:28:13.505Z,35776.00
2023-05-05T06:29:13.514Z,35552.00
2023-05-05T06:30:13.530Z,36160.00
2023-05-05T06:31:13.568Z,34016.00
2023-05-05T06:32:13.574Z,22400.00
2023-05-05T06:33:13.589Z,18976.00
2023-05-05T06:34:13.608Z,19040.00
2023-05-05T06:35:13.624Z,18112.00
2023-05-05T06:36:13.680Z,19296.00
2023-05-05T06:37:13.668Z,25472.00
2023-05-05T06:38:13.687Z,25888.00
2023-05-05T06:39:15.805Z,34112.00
2023-05-05T06:40:13.729Z,37920.00
2023-05-05T06:41:13.816Z,36736.00
2023-05-05T06:42:13.775Z,27968.00
2023-05-05T06:43:13.800Z,40608.00
2023-05-05T06:44:13.817Z,40032.00
2023-05-05T06:45:13.827Z,40032.00
2023-05-05T06:46:13.873Z,40288.00
2023-05-05T06:47:13.866Z,38784.00
2023-05-05T06:48:13.897Z,35296.00
2023-05-05T06:49:13.911Z,33344.00
2023-05-05T06:50:13.956Z,32064.00
2023-05-05T06:51:13.950Z,21504.00
2023-05-05T06:52:13.975Z,16420.00
2023-05-05T06:53:13.993Z,16864.00
2023-05-05T06:54:14.013Z,23552.00
2023-05-05T06:55:14.039Z,19488.00
2023-05-05T06:56:14.055Z,16556.00
2023-05-05T06:57:14.075Z,21952.00
2023-05-05T06:58:14.099Z,25824.00
2023-05-05T06:59:14.139Z,17664.00
2023-05-05T07:00:14.139Z,21312.00
2023-05-05T07:01:14.206Z,25472.00
2023-05-05T07:02:14.185Z,26144.00
2023-05-05T07:03:14.310Z,26240.00
2023-05-05T07:04:14.512Z,25024.00
2023-05-05T07:05:14.245Z,25472.00
2023-05-05T07:06:14.278Z,25184.00
2023-05-05T07:07:14.288Z,24480.00
2023-05-05T07:08:14.311Z,22208.00
2023-05-05T07:09:15.743Z,20000.00
2023-05-05T07:10:14.362Z,23072.00
2023-05-05T07:12:14.397Z,23904.00
2023-05-05T07:13:14.459Z,27168.00
2023-05-05T07:14:14.440Z,26624.00
2023-05-05T07:15:26.913Z,17344.00
2023-05-05T07:16:14.495Z,29120.00
2023-05-05T07:17:14.506Z,31968.00
2023-05-05T07:18:14.541Z,31520.00
2023-05-05T07:19:14.548Z,32000.00
2023-05-05T07:20:14.571Z,30784.00
2023-05-05T07:21:14.662Z,32704.00
2023-05-05T07:22:14.613Z,32480.00
2023-05-05T07:23:14.633Z,33216.00
2023-05-05T07:24:14.656Z,32928.00
2023-05-05T07:25:14.705Z,33696.00
2023-05-05T07:26:14.701Z,32608.00
2023-05-05T07:27:14.723Z,33856.00
2023-05-05T07:28:14.747Z,35776.00
2023-05-05T07:29:14.809Z,35936.00
2023-05-05T07:30:18.164Z,35744.00
2023-05-05T07:31:14.819Z,35936.00
2023-05-05T07:32:14.863Z,35808.00
2023-05-05T07:33:14.859Z,35488.00
2023-05-05T07:34:14.882Z,36384.00
2023-05-05T07:35:14.914Z,37280.00
2023-05-05T07:36:14.924Z,37280.00
2023-05-05T07:37:14.962Z,37504.00
2023-05-05T07:38:14.978Z,37664.00
2023-05-05T07:39:15.032Z,37632.00
2023-05-05T07:40:15.039Z,37984.00
2023-05-05T07:41:15.060Z,37344.00
2023-05-05T07:42:15.063Z,38016.00
2023-05-05T07:43:15.088Z,38560.00
2023-05-05T07:44:15.118Z,38720.00
2023-05-05T07:45:15.154Z,36352.00
2023-05-05T07:46:15.244Z,37984.00
2023-05-05T07:47:15.181Z,39296.00
2023-05-05T07:48:15.213Z,39744.00
2023-05-05T07:49:15.225Z,39680.00
2023-05-05T07:50:15.252Z,39840.00
2023-05-05T07:51:15.282Z,40320.00
2023-05-05T07:52:15.306Z,40896.00
2023-05-05T07:53:15.428Z,41152.00
2023-05-05T07:54:15.347Z,41344.00
2023-05-05T07:55:15.375Z,41632.00
2023-05-05T07:56:15.396Z,41760.00
2023-05-05T07:57:15.422Z,41664.00
2023-05-05T07:58:15.447Z,42240.00
2023-05-05T07:59:15.473Z,42720.00
2023-05-05T08:00:15.494Z,42656.00
2023-05-05T08:01:15.517Z,42336.00
2023-05-05T08:02:15.570Z,42816.00
2023-05-05T08:03:15.621Z,43264.00
2023-05-05T08:04:15.728Z,43424.00
2023-05-05T08:05:15.619Z,44128.00
2023-05-05T08:06:15.656Z,43968.00
2023-05-05T08:07:15.673Z,43744.00
2023-05-05T08:08:15.727Z,44352.00
2023-05-05T08:09:15.713Z,43584.00
2023-05-05T08:10:15.739Z,42080.00
2023-05-05T08:11:15.766Z,34848.00
2023-05-05T08:12:15.787Z,18912.00
2023-05-05T08:13:15.926Z,9692.00
2023-05-05T08:14:15.851Z,8996.00
2023-05-05T08:15:15.861Z,9036.00
2023-05-05T08:16:15.937Z,9088.00
2023-05-05T08:17:17.327Z,9156.00
2023-05-05T08:18:15.937Z,9220.00
2023-05-05T08:19:27.649Z,9288.00
2023-05-05T08:20:15.985Z,9360.00
2023-05-05T08:21:16.003Z,9432.00
2023-05-05T08:22:16.028Z,9468.00
2023-05-05T08:23:16.053Z,9476.00
2023-05-05T08:24:16.076Z,9504.00
2023-05-05T08:25:16.098Z,9560.00
2023-05-05T08:26:16.126Z,9596.00
2023-05-05T08:27:16.149Z,9648.00
2023-05-05T08:28:16.161Z,9740.00
2023-05-05T08:29:16.188Z,9860.00
2023-05-05T08:30:16.210Z,9920.00
2023-05-05T08:31:16.260Z,10044.00
2023-05-05T08:32:16.265Z,10096.00
2023-05-05T08:33:16.312Z,10116.00
2023-05-05T08:34:16.302Z,10128.00
2023-05-05T08:35:16.358Z,10252.00
2023-05-05T08:36:16.339Z,10300.00
2023-05-05T08:37:16.362Z,10320.00
2023-05-05T08:38:16.381Z,10352.00
2023-05-05T08:39:16.403Z,10412.00
2023-05-05T08:40:16.424Z,10464.00
2023-05-05T08:41:16.442Z,10536.00
2023-05-05T08:42:28.999Z,10664.00
2023-05-05T08:43:16.493Z,10820.00
2023-05-05T08:44:16.508Z,10980.00
2023-05-05T08:45:16.534Z,11152.00
2023-05-05T08:46:16.564Z,11332.00
2023-05-05T08:47:16.570Z,11576.00
2023-05-05T08:48:16.589Z,11888.00
2023-05-05T08:49:16.607Z,12196.00
2023-05-05T08:50:16.629Z,12376.00
2023-05-05T08:51:16.657Z,12488.00
2023-05-05T08:52:16.677Z,12448.00
2023-05-05T08:53:16.699Z,12416.00
2023-05-05T08:54:16.709Z,12312.00
2023-05-05T08:55:16.738Z,12216.00
2023-05-05T08:56:16.762Z,12104.00
2023-05-05T08:57:16.778Z,11920.00
2023-05-05T08:58:16.798Z,11716.00
2023-05-05T08:59:16.825Z,11584.00
2023-05-05T09:00:16.841Z,11536.00
2023-05-05T09:01:16.893Z,11568.00
2023-05-05T09:02:16.943Z,11604.00
2023-05-05T09:03:17.210Z,11712.00
2023-05-05T09:04:16.942Z,11804.00
2023-05-05T09:05:16.953Z,11844.00
2023-05-05T09:06:16.961Z,11864.00
2023-05-05T09:07:16.981Z,11884.00
2023-05-05T09:08:17.003Z,11940.00
2023-05-05T09:09:17.038Z,12028.00
2023-05-05T09:10:17.046Z,12104.00
2023-05-05T09:11:17.064Z,12224.00
2023-05-05T09:12:17.085Z,12432.00
2023-05-05T09:13:17.210Z,12580.00
2023-05-05T09:14:17.151Z,12768.00
2023-05-05T09:15:17.147Z,12916.00
2023-05-05T09:16:17.201Z,12988.00
2023-05-05T09:17:17.189Z,12980.00
2023-05-05T09:18:17.211Z,12836.00
2023-05-05T09:19:17.235Z,12656.00
2023-05-05T09:20:17.252Z,12600.00
2023-05-05T09:21:17.281Z,12704.00
2023-05-05T09:22:17.295Z,12784.00
2023-05-05T09:23:17.358Z,13088.00
2023-05-05T09:24:17.340Z,13380.00
2023-05-05T09:25:17.365Z,13704.00
2023-05-05T09:26:17.392Z,14080.00
2023-05-05T09:27:17.399Z,14796.00
2023-05-05T09:28:17.437Z,15776.00
2023-05-05T09:29:17.446Z,16852.00
2023-05-05T09:30:17.467Z,17248.00
2023-05-05T09:31:17.511Z,16940.00
2023-05-05T09:32:17.510Z,16888.00
2023-05-05T09:33:17.530Z,17536.00
2023-05-05T09:34:17.558Z,18720.00
2023-05-05T09:35:17.581Z,19424.00
2023-05-05T09:36:17.605Z,20704.00
2023-05-05T09:37:17.615Z,20544.00
2023-05-05T09:38:17.641Z,20832.00
2023-05-05T09:39:17.665Z,20704.00
2023-05-05T09:40:17.685Z,20000.00
2023-05-05T09:41:17.709Z,19168.00
2023-05-05T09:42:17.726Z,18592.00
2023-05-05T09:43:17.750Z,18528.00
2023-05-05T09:44:17.775Z,19040.00
2023-05-05T09:45:17.843Z,23072.00
2023-05-05T09:46:17.898Z,33056.00
2023-05-05T09:47:29.095Z,42720.00
2023-05-05T09:48:17.874Z,47424.00
2023-05-05T09:49:17.896Z,46528.00
2023-05-05T09:50:17.914Z,39744.00
2023-05-05T09:51:17.931Z,35072.00
2023-05-05T09:52:17.958Z,34336.00
2023-05-05T09:53:17.970Z,37376.00
2023-05-05T09:54:17.997Z,44352.00
2023-05-05T09:55:18.053Z,42144.00
2023-05-05T09:56:18.049Z,31360.00
2023-05-05T09:57:18.068Z,24928.00
2023-05-05T09:58:18.126Z,27104.00
2023-05-05T09:59:18.116Z,36224.00
2023-05-05T10:00:18.141Z,40608.00
2023-05-05T10:01:18.220Z,43776.00
2023-05-05T10:02:18.188Z,39328.00
2023-05-05T10:03:18.242Z,31040.00
2023-05-05T10:04:18.238Z,31936.00
2023-05-05T10:05:18.341Z,31520.00
2023-05-05T10:06:18.282Z,33824.00
2023-05-05T10:07:18.313Z,34560.00
2023-05-05T10:08:18.337Z,44864.00
2023-05-05T10:09:18.362Z,35712.00
2023-05-05T10:10:18.494Z,59648.00
2023-05-05T10:11:18.411Z,46560.00
2023-05-05T10:12:18.439Z,31968.00
2023-05-05T10:13:18.655Z,30560.00
2023-05-05T10:14:18.486Z,32096.00
2023-05-05T10:15:18.510Z,40256.00
2023-05-05T10:16:18.562Z,43008.00
2023-05-05T10:17:18.561Z,47712.00
2023-05-05T10:18:18.594Z,50592.00
2023-05-05T10:19:18.614Z,51520.00
2023-05-05T10:20:18.657Z,53184.00
2023-05-05T10:21:18.666Z,58848.00
2023-05-05T10:22:18.692Z,56192.00
2023-05-05T10:23:18.718Z,51232.00
2023-05-05T10:24:18.746Z,44768.00
2023-05-05T10:25:18.776Z,43200.00
2023-05-05T10:26:18.814Z,48288.00
2023-05-05T10:27:18.911Z,54560.00
2023-05-05T10:28:18.861Z,48576.00
2023-05-05T10:29:18.881Z,52960.00
2023-05-05T10:30:18.913Z,52640.00
2023-05-05T10:31:25.961Z,55488.00
2023-05-05T10:32:46.540Z,59712.00
2023-05-05T10:34:19.066Z,60800.00
2023-05-05T10:35:19.051Z,58816.00
2023-05-05T10:36:19.083Z,58400.00
2023-05-05T10:37:19.114Z,61248.00
2023-05-05T10:38:19.141Z,62912.00
2023-05-05T10:39:19.174Z,61536.00
2023-05-05T10:40:19.219Z,62112.00
2023-05-05T10:41:19.230Z,61920.00
2023-05-05T10:42:19.269Z,61568.00
2023-05-05T10:43:19.293Z,60512.00
2023-05-05T10:44:19.323Z,59712.00
2023-05-05T10:45:19.380Z,59680.00
2023-05-05T10:46:19.400Z,59072.00
2023-05-05T10:47:19.411Z,59232.00
2023-05-05T10:48:19.481Z,59232.00
2023-05-05T10:49:19.476Z,59648.00
2023-05-05T10:50:19.508Z,59488.00
2023-05-05T10:51:31.023Z,60288.00
2023-05-05T10:52:19.571Z,60832.00
2023-05-05T10:53:19.598Z,61248.00
2023-05-05T10:54:19.704Z,61760.00
2023-05-05T10:55:19.662Z,61248.00
2023-05-05T10:56:19.698Z,60800.00
2023-05-05T10:57:19.724Z,60064.00
2023-05-05T10:58:19.754Z,58880.00
2023-05-05T10:59:19.797Z,59072.00
2023-05-05T11:00:19.818Z,59584.00
2023-05-05T11:01:19.869Z,60992.00
2023-05-05T11:02:19.914Z,61664.00
2023-05-05T11:03:20.002Z,62528.00
2023-05-05T11:04:19.967Z,63360.00
2023-05-05T11:05:19.983Z,61920.00
2023-05-05T11:06:20.013Z,61920.00
2023-05-05T11:07:20.044Z,61568.00
2023-05-05T11:08:20.074Z,63200.00
2023-05-05T11:09:20.104Z,62592.00
2023-05-05T11:10:20.140Z,63136.00
2023-05-05T11:11:20.178Z,62208.00
2023-05-05T11:12:20.205Z,25024.00
2023-05-05T11:13:20.267Z,38976.00
2023-05-05T11:14:20.269Z,24832.00
2023-05-05T11:15:20.310Z,51776.00
2023-05-05T11:16:20.347Z,52672.00
2023-05-05T11:17:20.366Z,50208.00
2023-05-05T11:18:20.405Z,43712.00
2023-05-05T11:19:20.433Z,50752.00
2023-05-05T11:20:20.475Z,55008.00
2023-05-05T11:21:20.506Z,55232.00
2023-05-05T11:22:20.542Z,53728.00
2023-05-05T11:23:20.577Z,48640.00
2023-05-05T11:24:20.599Z,43104.00
2023-05-05T11:25:20.624Z,45408.00
2023-05-05T11:26:20.661Z,34432.00
2023-05-05T11:27:20.695Z,38304.00
2023-05-05T11:28:20.724Z,37024.00
2023-05-05T11:29:20.759Z,27968.00
2023-05-05T11:30:20.782Z,21024.00
2023-05-05T11:31:20.936Z,27712.00
2023-05-05T11:32:20.859Z,31520.00
2023-05-05T11:33:20.901Z,32832.00
2023-05-05T11:34:20.912Z,32832.00
2023-05-05T11:35:20.934Z,30752.00
2023-05-05T11:36:20.969Z,33888.00
2023-05-05T11:37:20.999Z,30272.00
2023-05-05T11:38:21.030Z,34016.00
2023-05-05T11:39:21.057Z,39136.00
2023-05-05T11:40:21.088Z,37664.00
2023-05-05T11:41:21.115Z,34912.00
2023-05-05T11:42:21.147Z,32736.00
2023-05-05T11:43:21.177Z,32640.00
2023-05-05T11:44:21.217Z,33824.00
2023-05-05T11:45:21.234Z,34336.00
2023-05-05T11:46:21.287Z,38912.00
2023-05-05T11:47:21.342Z,45312.00
2023-05-05T11:48:21.359Z,46336.00
2023-05-05T11:49:21.346Z,35424.00
2023-05-05T11:50:21.386Z,35392.00
2023-05-05T11:51:21.407Z,27680.00
2023-05-05T11:52:21.433Z,40512.00
2023-05-05T11:53:21.466Z,54400.00
2023-05-05T11:54:21.492Z,49024.00
2023-05-05T11:55:21.518Z,48960.00
2023-05-05T11:56:21.566Z,50016.00
2023-05-05T11:57:21.663Z,44928.00
2023-05-05T11:58:21.609Z,38528.00
2023-05-05T11:59:21.649Z,39232.00
2023-05-05T12:00:21.675Z,45440.00
2023-05-05T12:01:21.697Z,38880.00
2023-05-05T12:02:21.772Z,43040.00
2023-05-05T12:03:21.870Z,35520.00
2023-05-05T12:04:21.827Z,38336.00
2023-05-05T12:05:21.823Z,37344.00
2023-05-05T12:06:21.842Z,34240.00
2023-05-05T12:07:21.885Z,56576.00
2023-05-05T12:08:21.897Z,58016.00
2023-05-05T12:09:21.943Z,55776.00
2023-05-05T12:10:21.960Z,57504.00
2023-05-05T12:11:22.002Z,56992.00
2023-05-05T12:12:22.024Z,53856.00
2023-05-05T12:13:22.176Z,55072.00
2023-05-05T12:14:22.074Z,52896.00
2023-05-05T12:15:22.117Z,45728.00
2023-05-05T12:16:22.190Z,46272.00